AAL2025 KPHF-KMCO
Flight info
| Callsign | AAL2025 |
|---|---|
| Flight time | 1h 29m |
| Altitude | 37000 |
| Route | COUPN PAACK Q97 JEVED LPERD GTOUT1 |
| Aircraft | MD11/H-SDE1E2E3FGHIJ2J3J4J5M1RWXY/LB1D1 |
Departure
| Time | 2026-05-06 20:06 |
|---|---|
| Airport | Newport News Williamsburg International Airport (KPHF) |
Arrival
| Time | 2026-05-06 21:35 |
|---|---|
| Airport | Orlando International Airport (KMCO) |
| Time | Latitude | Longitude | Altitude | Speed | Heading |
|---|---|---|---|---|---|
| 2026-05-06 19:43 | 37.13037 | -76.50175 | 58 ft | 0 kts | 192° |
| 2026-05-06 19:50 | 37.13038 | -76.50175 | 58 ft | 0 kts | 192° |
| 2026-05-06 19:55 | 37.13045 | -76.50173 | 58 ft | 4 kts | 190° |
| 2026-05-06 19:56 | 37.13071 | -76.50167 | 56 ft | 3 kts | 202° |
| 2026-05-06 19:56 | 37.13082 | -76.50160 | 52 ft | 4 kts | 223° |
| 2026-05-06 19:56 | 37.13091 | -76.50152 | 56 ft | 0 kts | 225° |
| 2026-05-06 19:59 | 37.13091 | -76.50151 | 56 ft | 0 kts | 225° |
| 2026-05-06 20:00 | 37.13091 | -76.50152 | 58 ft | 0 kts | 224° |
| 2026-05-06 20:00 | 37.13074 | -76.50154 | 51 ft | 3 kts | 178° |
| 2026-05-06 20:00 | 37.13059 | -76.50134 | 51 ft | 1 kts | 114° |
| 2026-05-06 20:00 | 37.13062 | -76.50095 | 52 ft | 10 kts | 82° |
| 2026-05-06 20:01 | 37.13072 | -76.49984 | 54 ft | 13 kts | 66° |
| 2026-05-06 20:01 | 37.13126 | -76.49930 | 52 ft | 14 kts | 32° |
| 2026-05-06 20:01 | 37.13169 | -76.49822 | 55 ft | 15 kts | 96° |
| 2026-05-06 20:01 | 37.13140 | -76.49655 | 53 ft | 26 kts | 103° |
| 2026-05-06 20:02 | 37.13100 | -76.49436 | 56 ft | 16 kts | 102° |
| 2026-05-06 20:02 | 37.13100 | -76.49305 | 58 ft | 14 kts | 74° |
| 2026-05-06 20:02 | 37.13137 | -76.49210 | 54 ft | 11 kts | 58° |
| 2026-05-06 20:02 | 37.13179 | -76.49130 | 53 ft | 12 kts | 57° |
| 2026-05-06 20:03 | 37.13235 | -76.49016 | 54 ft | 19 kts | 58° |
| 2026-05-06 20:03 | 37.13316 | -76.48852 | 51 ft | 25 kts | 58° |
| 2026-05-06 20:03 | 37.13422 | -76.48641 | 53 ft | 32 kts | 58° |
| 2026-05-06 20:03 | 37.13530 | -76.48416 | 54 ft | 24 kts | 62° |
| 2026-05-06 20:04 | 37.13585 | -76.48267 | 54 ft | 10 kts | 66° |
| 2026-05-06 20:04 | 37.13623 | -76.48174 | 51 ft | 14 kts | 59° |
| 2026-05-06 20:04 | 37.13687 | -76.48049 | 56 ft | 20 kts | 57° |
| 2026-05-06 20:04 | 37.13734 | -76.47925 | 53 ft | 14 kts | 88° |
| 2026-05-06 20:05 | 37.13677 | -76.47856 | 53 ft | 12 kts | 179° |
| 2026-05-06 20:05 | 37.13617 | -76.47925 | 54 ft | 15 kts | 239° |
| 2026-05-06 20:05 | 37.13449 | -76.48261 | 53 ft | 92 kts | 238° |
| 2026-05-06 20:05 | 37.12954 | -76.49247 | 175 ft | 165 kts | 237° |
| 2026-05-06 20:06 | 37.12524 | -76.50100 | 624 ft | 183 kts | 236° |
| 2026-05-06 20:06 | 37.11827 | -76.51498 | 1561 ft | 194 kts | 237° |
| 2026-05-06 20:06 | 37.11151 | -76.52957 | 2661 ft | 198 kts | 238° |
| 2026-05-06 20:06 | 37.10460 | -76.54497 | 3675 ft | 206 kts | 240° |
| 2026-05-06 20:07 | 37.09728 | -76.56122 | 4548 ft | 208 kts | 235° |
| 2026-05-06 20:07 | 37.08654 | -76.57015 | 6335 ft | 180 kts | 211° |
| 2026-05-06 20:07 | 37.07364 | -76.57645 | 6517 ft | 235 kts | 206° |
| 2026-05-06 20:07 | 37.05736 | -76.58370 | 7300 ft | 248 kts | 207° |
| 2026-05-06 20:08 | 37.04253 | -76.59083 | 9156 ft | 214 kts | 208° |
| 2026-05-06 20:08 | 37.02742 | -76.59799 | 9240 ft | 257 kts | 207° |
| 2026-05-06 20:08 | 37.01139 | -76.60640 | 9706 ft | 216 kts | 208° |
| 2026-05-06 20:08 | 36.99739 | -76.61239 | 11081 ft | 209 kts | 204° |
| 2026-05-06 20:09 | 36.98337 | -76.61717 | 12171 ft | 218 kts | 202° |
| 2026-05-06 20:09 | 36.96856 | -76.62252 | 13011 ft | 221 kts | 208° |
| 2026-05-06 20:09 | 36.95508 | -76.63110 | 13951 ft | 221 kts | 218° |
| 2026-05-06 20:09 | 36.94100 | -76.64230 | 14126 ft | 258 kts | 217° |
| 2026-05-06 20:10 | 36.92473 | -76.65482 | 14384 ft | 291 kts | 215° |
| 2026-05-06 20:10 | 36.90622 | -76.66817 | 14631 ft | 323 kts | 213° |
| 2026-05-06 20:10 | 36.88558 | -76.68221 | 14880 ft | 352 kts | 212° |
| 2026-05-06 20:10 | 36.86321 | -76.69677 | 15133 ft | 368 kts | 211° |
| 2026-05-06 20:11 | 36.84019 | -76.71125 | 15372 ft | 372 kts | 210° |
| 2026-05-06 20:11 | 36.81687 | -76.72565 | 15608 ft | 374 kts | 210° |
| 2026-05-06 20:11 | 36.79346 | -76.73998 | 15852 ft | 375 kts | 210° |
| 2026-05-06 20:11 | 36.77000 | -76.75430 | 16105 ft | 376 kts | 209° |
| 2026-05-06 20:12 | 36.74640 | -76.76868 | 16356 ft | 377 kts | 209° |
| 2026-05-06 20:12 | 36.72281 | -76.78306 | 16585 ft | 379 kts | 209° |
| 2026-05-06 20:12 | 36.69934 | -76.79736 | 16920 ft | 381 kts | 209° |
| 2026-05-06 20:12 | 36.67508 | -76.81214 | 17436 ft | 385 kts | 209° |
| 2026-05-06 20:13 | 36.65122 | -76.82667 | 17948 ft | 388 kts | 209° |
| 2026-05-06 20:13 | 36.62686 | -76.84149 | 18439 ft | 392 kts | 209° |
| 2026-05-06 20:13 | 36.60227 | -76.85644 | 18898 ft | 394 kts | 210° |
| 2026-05-06 20:13 | 36.57751 | -76.87147 | 19354 ft | 397 kts | 210° |
| 2026-05-06 20:14 | 36.55266 | -76.88656 | 19837 ft | 399 kts | 210° |
| 2026-05-06 20:14 | 36.52764 | -76.90172 | 20310 ft | 401 kts | 210° |
| 2026-05-06 20:14 | 36.50250 | -76.91697 | 20782 ft | 404 kts | 210° |
| 2026-05-06 20:14 | 36.47716 | -76.93233 | 21273 ft | 411 kts | 209° |
| 2026-05-06 20:15 | 36.45107 | -76.94813 | 21780 ft | 416 kts | 209° |
| 2026-05-06 20:15 | 36.42489 | -76.96396 | 22294 ft | 419 kts | 209° |
| 2026-05-06 20:15 | 36.39852 | -76.97987 | 22806 ft | 422 kts | 209° |
| 2026-05-06 20:15 | 36.37253 | -76.99555 | 23331 ft | 425 kts | 209° |
| 2026-05-06 20:16 | 36.34555 | -77.01177 | 23814 ft | 428 kts | 209° |
| 2026-05-06 20:16 | 36.31868 | -77.02787 | 24272 ft | 430 kts | 210° |
| 2026-05-06 20:16 | 36.29167 | -77.04406 | 24711 ft | 432 kts | 210° |
| 2026-05-06 20:16 | 36.26452 | -77.06033 | 25167 ft | 432 kts | 211° |
| 2026-05-06 20:17 | 36.23746 | -77.07657 | 25637 ft | 433 kts | 211° |
| 2026-05-06 20:17 | 36.21021 | -77.09293 | 26112 ft | 435 kts | 211° |
| 2026-05-06 20:17 | 36.18286 | -77.10936 | 26597 ft | 438 kts | 211° |
| 2026-05-06 20:17 | 36.15547 | -77.12580 | 27083 ft | 440 kts | 211° |
| 2026-05-06 20:18 | 36.12787 | -77.14236 | 27600 ft | 443 kts | 211° |
| 2026-05-06 20:18 | 36.10005 | -77.15903 | 28097 ft | 445 kts | 212° |
| 2026-05-06 20:18 | 36.07203 | -77.17580 | 28623 ft | 448 kts | 212° |
| 2026-05-06 20:18 | 36.04392 | -77.19262 | 29123 ft | 451 kts | 212° |
| 2026-05-06 20:19 | 36.01553 | -77.20960 | 29663 ft | 455 kts | 212° |
| 2026-05-06 20:19 | 35.98719 | -77.22652 | 30180 ft | 458 kts | 212° |
| 2026-05-06 20:19 | 35.95840 | -77.24370 | 30649 ft | 461 kts | 212° |
| 2026-05-06 20:19 | 35.92947 | -77.26112 | 31129 ft | 461 kts | 214° |
| 2026-05-06 20:20 | 35.90209 | -77.28126 | 31608 ft | 456 kts | 221° |
| 2026-05-06 20:20 | 35.87657 | -77.30416 | 32099 ft | 453 kts | 225° |
| 2026-05-06 20:20 | 35.85191 | -77.32830 | 32602 ft | 451 kts | 226° |
| 2026-05-06 20:20 | 35.82761 | -77.35269 | 33092 ft | 450 kts | 227° |
| 2026-05-06 20:21 | 35.80334 | -77.37697 | 33598 ft | 449 kts | 227° |
| 2026-05-06 20:21 | 35.77901 | -77.40104 | 34106 ft | 448 kts | 227° |
| 2026-05-06 20:21 | 35.75466 | -77.42488 | 34581 ft | 446 kts | 228° |
| 2026-05-06 20:21 | 35.73037 | -77.44847 | 35046 ft | 444 kts | 228° |
| 2026-05-06 20:22 | 35.70615 | -77.47187 | 35522 ft | 441 kts | 228° |
| 2026-05-06 20:22 | 35.68196 | -77.49522 | 35892 ft | 441 kts | 229° |
| 2026-05-06 20:22 | 35.65786 | -77.51845 | 36266 ft | 440 kts | 229° |
| 2026-05-06 20:22 | 35.63404 | -77.54141 | 36644 ft | 439 kts | 229° |
| 2026-05-06 20:23 | 35.60997 | -77.56460 | 36905 ft | 441 kts | 229° |
| 2026-05-06 20:23 | 35.58576 | -77.58794 | 36956 ft | 442 kts | 229° |
| 2026-05-06 20:23 | 35.53797 | -77.63365 | 36997 ft | 431 kts | 229° |
| 2026-05-06 20:24 | 35.49072 | -77.67889 | 37003 ft | 430 kts | 229° |
| 2026-05-06 20:24 | 35.44351 | -77.72414 | 37008 ft | 430 kts | 229° |
| 2026-05-06 20:25 | 35.39631 | -77.76931 | 37002 ft | 430 kts | 229° |
| 2026-05-06 20:25 | 35.34910 | -77.81441 | 36985 ft | 430 kts | 229° |
| 2026-05-06 20:26 | 35.30191 | -77.85942 | 36990 ft | 430 kts | 229° |
| 2026-05-06 20:26 | 35.25493 | -77.90416 | 36987 ft | 430 kts | 229° |
| 2026-05-06 20:27 | 35.20770 | -77.94906 | 36986 ft | 430 kts | 229° |
| 2026-05-06 20:27 | 35.16053 | -77.99383 | 36989 ft | 428 kts | 229° |
| 2026-05-06 20:28 | 35.11342 | -78.03850 | 36996 ft | 429 kts | 229° |
| 2026-05-06 20:28 | 35.06620 | -78.08323 | 36998 ft | 430 kts | 229° |
| 2026-05-06 20:29 | 35.01892 | -78.12791 | 36998 ft | 430 kts | 229° |
| 2026-05-06 20:29 | 34.97186 | -78.17231 | 36997 ft | 430 kts | 229° |
| 2026-05-06 20:30 | 34.90085 | -78.23918 | 36980 ft | 431 kts | 229° |
| 2026-05-06 20:31 | 34.85316 | -78.28378 | 36992 ft | 432 kts | 229° |
| 2026-05-06 20:31 | 34.80551 | -78.32835 | 36989 ft | 432 kts | 229° |
| 2026-05-06 20:32 | 34.75784 | -78.37297 | 36988 ft | 432 kts | 229° |
| 2026-05-06 20:32 | 34.71028 | -78.41749 | 36994 ft | 432 kts | 229° |
| 2026-05-06 20:33 | 34.66283 | -78.46188 | 36997 ft | 438 kts | 229° |
| 2026-05-06 20:33 | 34.61410 | -78.50747 | 36999 ft | 444 kts | 229° |
| 2026-05-06 20:34 | 34.56497 | -78.55317 | 37000 ft | 445 kts | 229° |
| 2026-05-06 20:34 | 34.51579 | -78.59886 | 36997 ft | 445 kts | 229° |
| 2026-05-06 20:35 | 34.46633 | -78.64427 | 36998 ft | 447 kts | 227° |
| 2026-05-06 20:35 | 34.41566 | -78.68743 | 37008 ft | 449 kts | 225° |
| 2026-05-06 20:36 | 34.36432 | -78.73016 | 37006 ft | 446 kts | 225° |
| 2026-05-06 20:36 | 34.31325 | -78.77280 | 37013 ft | 445 kts | 226° |
| 2026-05-06 20:37 | 34.26231 | -78.81545 | 37017 ft | 445 kts | 226° |
| 2026-05-06 20:37 | 34.21142 | -78.85804 | 37000 ft | 444 kts | 226° |
| 2026-05-06 20:38 | 34.16085 | -78.90017 | 37007 ft | 444 kts | 225° |
| 2026-05-06 20:38 | 34.10994 | -78.94245 | 37013 ft | 444 kts | 225° |
| 2026-05-06 20:39 | 34.05902 | -78.98470 | 37018 ft | 443 kts | 225° |
| 2026-05-06 20:39 | 34.00822 | -79.02682 | 37015 ft | 443 kts | 225° |
| 2026-05-06 20:40 | 33.95743 | -79.06889 | 37001 ft | 443 kts | 225° |
| 2026-05-06 20:40 | 33.90674 | -79.11079 | 37008 ft | 441 kts | 225° |
| 2026-05-06 20:41 | 33.85645 | -79.15231 | 37008 ft | 441 kts | 225° |
| 2026-05-06 20:41 | 33.80593 | -79.19396 | 37007 ft | 440 kts | 225° |
| 2026-05-06 20:42 | 33.75538 | -79.23558 | 37009 ft | 440 kts | 225° |
| 2026-05-06 20:42 | 33.70475 | -79.27723 | 37030 ft | 442 kts | 225° |
| 2026-05-06 20:43 | 33.65421 | -79.31925 | 37028 ft | 441 kts | 226° |
| 2026-05-06 20:43 | 33.60421 | -79.36181 | 37029 ft | 440 kts | 226° |
| 2026-05-06 20:44 | 33.55432 | -79.40445 | 37025 ft | 440 kts | 226° |
| 2026-05-06 20:44 | 33.50446 | -79.44697 | 37027 ft | 438 kts | 226° |
| 2026-05-06 20:45 | 33.45496 | -79.48911 | 37021 ft | 440 kts | 226° |
| 2026-05-06 20:45 | 33.40502 | -79.53156 | 37027 ft | 440 kts | 226° |
| 2026-05-06 20:46 | 33.35502 | -79.57397 | 37035 ft | 440 kts | 226° |
| 2026-05-06 20:46 | 33.30501 | -79.61634 | 37039 ft | 440 kts | 226° |
| 2026-05-06 20:47 | 33.25504 | -79.65862 | 37029 ft | 440 kts | 226° |
| 2026-05-06 20:47 | 33.20493 | -79.70096 | 37029 ft | 442 kts | 226° |
| 2026-05-06 20:48 | 33.15517 | -79.74294 | 37021 ft | 442 kts | 226° |
| 2026-05-06 20:48 | 33.10492 | -79.78526 | 37020 ft | 442 kts | 226° |
| 2026-05-06 20:49 | 33.05472 | -79.82746 | 37021 ft | 440 kts | 226° |
| 2026-05-06 20:49 | 33.00469 | -79.86946 | 37036 ft | 440 kts | 226° |
| 2026-05-06 20:50 | 32.95455 | -79.91133 | 37035 ft | 440 kts | 226° |
| 2026-05-06 20:50 | 32.90446 | -79.95316 | 37035 ft | 440 kts | 226° |
| 2026-05-06 20:51 | 32.85425 | -79.99512 | 37037 ft | 440 kts | 226° |
| 2026-05-06 20:51 | 32.80454 | -80.03664 | 37036 ft | 440 kts | 226° |
| 2026-05-06 20:52 | 32.75444 | -80.07843 | 37013 ft | 439 kts | 226° |
| 2026-05-06 20:52 | 32.70470 | -80.11983 | 37045 ft | 439 kts | 226° |
| 2026-05-06 20:53 | 32.66270 | -80.15484 | 37043 ft | 441 kts | 226° |
| 2026-05-06 20:53 | 32.61313 | -80.19599 | 37044 ft | 439 kts | 226° |
| 2026-05-06 20:54 | 32.56265 | -80.23701 | 37046 ft | 442 kts | 223° |
| 2026-05-06 20:54 | 32.50867 | -80.27336 | 37020 ft | 448 kts | 219° |
| 2026-05-06 20:55 | 32.45341 | -80.30804 | 37046 ft | 450 kts | 219° |
| 2026-05-06 20:55 | 32.39816 | -80.34288 | 37048 ft | 449 kts | 219° |
| 2026-05-06 20:56 | 32.34317 | -80.37787 | 37045 ft | 449 kts | 219° |
| 2026-05-06 20:56 | 32.28818 | -80.41294 | 37045 ft | 449 kts | 219° |
| 2026-05-06 20:57 | 32.23355 | -80.44775 | 37037 ft | 450 kts | 219° |
| 2026-05-06 20:57 | 32.17832 | -80.48290 | 37042 ft | 451 kts | 219° |
| 2026-05-06 20:58 | 32.12297 | -80.51803 | 37035 ft | 451 kts | 219° |
| 2026-05-06 20:58 | 32.06751 | -80.55318 | 37036 ft | 450 kts | 219° |
| 2026-05-06 20:59 | 32.01240 | -80.58805 | 37028 ft | 449 kts | 219° |
| 2026-05-06 20:59 | 31.95728 | -80.62293 | 37025 ft | 450 kts | 218° |
| 2026-05-06 21:00 | 31.90247 | -80.65755 | 37030 ft | 450 kts | 218° |
| 2026-05-06 21:00 | 31.84721 | -80.69239 | 37026 ft | 450 kts | 218° |
| 2026-05-06 21:01 | 31.79187 | -80.72711 | 37030 ft | 450 kts | 218° |
| 2026-05-06 21:01 | 31.73664 | -80.76172 | 37002 ft | 450 kts | 218° |
| 2026-05-06 21:02 | 31.68128 | -80.79647 | 37024 ft | 452 kts | 218° |
| 2026-05-06 21:02 | 31.62580 | -80.83126 | 37028 ft | 452 kts | 218° |
| 2026-05-06 21:03 | 31.57039 | -80.86596 | 37028 ft | 452 kts | 218° |
| 2026-05-06 21:03 | 31.51530 | -80.90041 | 37030 ft | 452 kts | 218° |
| 2026-05-06 21:04 | 31.45988 | -80.93500 | 37021 ft | 451 kts | 218° |
| 2026-05-06 21:04 | 31.40438 | -80.96965 | 37018 ft | 452 kts | 218° |
| 2026-05-06 21:05 | 31.34883 | -81.00425 | 37025 ft | 453 kts | 218° |
| 2026-05-06 21:05 | 31.29322 | -81.03883 | 37031 ft | 453 kts | 218° |
| 2026-05-06 21:06 | 31.23420 | -81.06761 | 37027 ft | 467 kts | 207° |
| 2026-05-06 21:06 | 31.17139 | -81.08890 | 37021 ft | 472 kts | 205° |
| 2026-05-06 21:07 | 31.10800 | -81.10957 | 37029 ft | 472 kts | 206° |
| 2026-05-06 21:07 | 31.07681 | -81.12001 | 36877 ft | 471 kts | 206° |
| 2026-05-06 21:07 | 31.04571 | -81.13049 | 36361 ft | 458 kts | 206° |
| 2026-05-06 21:07 | 31.01537 | -81.14075 | 35874 ft | 448 kts | 206° |
| 2026-05-06 21:08 | 30.98546 | -81.15102 | 35399 ft | 448 kts | 206° |
| 2026-05-06 21:08 | 30.95551 | -81.16141 | 34933 ft | 451 kts | 206° |
| 2026-05-06 21:08 | 30.92533 | -81.17188 | 34439 ft | 454 kts | 206° |
| 2026-05-06 21:08 | 30.89489 | -81.18242 | 33999 ft | 458 kts | 206° |
| 2026-05-06 21:09 | 30.86423 | -81.19298 | 33485 ft | 460 kts | 206° |
| 2026-05-06 21:09 | 30.83343 | -81.20353 | 32963 ft | 461 kts | 205° |
| 2026-05-06 21:09 | 30.80264 | -81.21403 | 32467 ft | 460 kts | 205° |
| 2026-05-06 21:09 | 30.77196 | -81.22449 | 31986 ft | 459 kts | 205° |
| 2026-05-06 21:10 | 30.74130 | -81.23494 | 31505 ft | 459 kts | 205° |
| 2026-05-06 21:10 | 30.71112 | -81.24523 | 31146 ft | 458 kts | 205° |
| 2026-05-06 21:10 | 30.68016 | -81.25579 | 30791 ft | 457 kts | 205° |
| 2026-05-06 21:10 | 30.64940 | -81.26632 | 30426 ft | 471 kts | 204° |
| 2026-05-06 21:11 | 30.61778 | -81.27661 | 30156 ft | 485 kts | 200° |
| 2026-05-06 21:11 | 30.58390 | -81.28193 | 30063 ft | 498 kts | 189° |
| 2026-05-06 21:11 | 30.54899 | -81.28153 | 30051 ft | 505 kts | 184° |
| 2026-05-06 21:12 | 30.47858 | -81.27427 | 30045 ft | 508 kts | 181° |
| 2026-05-06 21:12 | 30.40821 | -81.26687 | 30045 ft | 507 kts | 182° |
| 2026-05-06 21:13 | 30.33795 | -81.26102 | 30046 ft | 506 kts | 183° |
| 2026-05-06 21:13 | 30.26774 | -81.25580 | 30047 ft | 506 kts | 184° |
| 2026-05-06 21:14 | 30.19745 | -81.25062 | 30044 ft | 506 kts | 184° |
| 2026-05-06 21:14 | 30.16232 | -81.24800 | 29436 ft | 504 kts | 183° |
| 2026-05-06 21:14 | 30.12743 | -81.24536 | 28820 ft | 500 kts | 183° |
| 2026-05-06 21:14 | 30.09289 | -81.24274 | 28217 ft | 496 kts | 183° |
| 2026-05-06 21:15 | 30.05858 | -81.24015 | 27633 ft | 492 kts | 182° |
| 2026-05-06 21:15 | 30.02447 | -81.23758 | 27065 ft | 488 kts | 182° |
| 2026-05-06 21:15 | 29.99071 | -81.23504 | 26506 ft | 484 kts | 182° |
| 2026-05-06 21:15 | 29.95717 | -81.23253 | 25952 ft | 480 kts | 182° |
| 2026-05-06 21:16 | 29.92440 | -81.23008 | 25424 ft | 476 kts | 182° |
| 2026-05-06 21:16 | 29.89147 | -81.22762 | 24913 ft | 473 kts | 182° |
| 2026-05-06 21:16 | 29.85878 | -81.22518 | 24385 ft | 469 kts | 182° |
| 2026-05-06 21:16 | 29.82639 | -81.22277 | 23878 ft | 465 kts | 182° |
| 2026-05-06 21:17 | 29.79414 | -81.22037 | 23316 ft | 462 kts | 182° |
| 2026-05-06 21:17 | 29.76217 | -81.21799 | 22714 ft | 459 kts | 181° |
| 2026-05-06 21:17 | 29.73042 | -81.21563 | 22131 ft | 455 kts | 181° |
| 2026-05-06 21:17 | 29.69896 | -81.21319 | 21559 ft | 451 kts | 181° |
| 2026-05-06 21:18 | 29.66796 | -81.21062 | 21001 ft | 447 kts | 180° |
| 2026-05-06 21:18 | 29.63701 | -81.20797 | 20448 ft | 443 kts | 180° |
| 2026-05-06 21:18 | 29.60634 | -81.20531 | 19907 ft | 440 kts | 180° |
| 2026-05-06 21:18 | 29.57631 | -81.20272 | 19382 ft | 436 kts | 180° |
| 2026-05-06 21:19 | 29.54617 | -81.20012 | 18862 ft | 433 kts | 180° |
| 2026-05-06 21:19 | 29.51624 | -81.19755 | 18322 ft | 429 kts | 179° |
| 2026-05-06 21:19 | 29.48656 | -81.19501 | 17726 ft | 426 kts | 179° |
| 2026-05-06 21:19 | 29.45715 | -81.19249 | 17149 ft | 421 kts | 179° |
| 2026-05-06 21:20 | 29.42806 | -81.19000 | 16583 ft | 417 kts | 179° |
| 2026-05-06 21:20 | 29.39917 | -81.18754 | 16015 ft | 414 kts | 178° |
| 2026-05-06 21:20 | 29.37062 | -81.18510 | 15477 ft | 408 kts | 178° |
| 2026-05-06 21:20 | 29.34306 | -81.18273 | 14937 ft | 395 kts | 178° |
| 2026-05-06 21:21 | 29.31594 | -81.18041 | 14409 ft | 385 kts | 178° |
| 2026-05-06 21:21 | 29.28972 | -81.17813 | 14052 ft | 369 kts | 178° |
| 2026-05-06 21:21 | 29.26441 | -81.17591 | 13702 ft | 362 kts | 178° |
| 2026-05-06 21:21 | 29.23936 | -81.17371 | 13321 ft | 359 kts | 177° |
| 2026-05-06 21:22 | 29.21453 | -81.17153 | 13054 ft | 356 kts | 177° |
| 2026-05-06 21:22 | 29.19024 | -81.16841 | 12999 ft | 357 kts | 169° |
| 2026-05-06 21:22 | 29.16626 | -81.16102 | 12779 ft | 358 kts | 163° |
| 2026-05-06 21:22 | 29.14284 | -81.15151 | 12282 ft | 356 kts | 160° |
| 2026-05-06 21:23 | 29.11982 | -81.14135 | 11804 ft | 353 kts | 159° |
| 2026-05-06 21:23 | 29.09707 | -81.13120 | 11317 ft | 349 kts | 159° |
| 2026-05-06 21:23 | 29.07463 | -81.12127 | 10844 ft | 343 kts | 160° |
| 2026-05-06 21:23 | 29.05251 | -81.11164 | 10386 ft | 337 kts | 160° |
| 2026-05-06 21:24 | 29.03048 | -81.10272 | 9921 ft | 332 kts | 162° |
| 2026-05-06 21:24 | 29.00877 | -81.09430 | 9416 ft | 327 kts | 162° |
| 2026-05-06 21:24 | 28.98733 | -81.08616 | 8916 ft | 321 kts | 163° |
| 2026-05-06 21:24 | 28.96571 | -81.08059 | 8426 ft | 316 kts | 172° |
| 2026-05-06 21:25 | 28.94406 | -81.07734 | 7929 ft | 312 kts | 174° |
| 2026-05-06 21:25 | 28.92283 | -81.07480 | 7472 ft | 308 kts | 175° |
| 2026-05-06 21:25 | 28.90153 | -81.07253 | 6992 ft | 304 kts | 178° |
| 2026-05-06 21:25 | 28.88085 | -81.07470 | 6529 ft | 292 kts | 198° |
| 2026-05-06 21:26 | 28.86325 | -81.08434 | 6046 ft | 274 kts | 213° |
| 2026-05-06 21:26 | 28.84775 | -81.09628 | 5563 ft | 264 kts | 216° |
| 2026-05-06 21:26 | 28.83281 | -81.10849 | 5087 ft | 264 kts | 216° |
| 2026-05-06 21:26 | 28.81801 | -81.12061 | 4591 ft | 260 kts | 215° |
| 2026-05-06 21:27 | 28.80388 | -81.13211 | 4163 ft | 237 kts | 215° |
| 2026-05-06 21:27 | 28.79088 | -81.14262 | 3783 ft | 223 kts | 214° |
| 2026-05-06 21:27 | 28.77831 | -81.15278 | 3418 ft | 220 kts | 215° |
| 2026-05-06 21:27 | 28.76643 | -81.16364 | 3080 ft | 217 kts | 219° |
| 2026-05-06 21:28 | 28.75499 | -81.17485 | 2996 ft | 216 kts | 220° |
| 2026-05-06 21:28 | 28.74354 | -81.18613 | 2972 ft | 218 kts | 219° |
| 2026-05-06 21:28 | 28.73205 | -81.19746 | 2976 ft | 219 kts | 219° |
| 2026-05-06 21:28 | 28.72054 | -81.20882 | 2972 ft | 218 kts | 219° |
| 2026-05-06 21:29 | 28.70910 | -81.22010 | 2994 ft | 215 kts | 219° |
| 2026-05-06 21:29 | 28.69784 | -81.23122 | 2959 ft | 212 kts | 220° |
| 2026-05-06 21:29 | 28.68664 | -81.24228 | 2977 ft | 213 kts | 219° |
| 2026-05-06 21:29 | 28.67544 | -81.25331 | 2991 ft | 214 kts | 220° |
| 2026-05-06 21:30 | 28.66417 | -81.26443 | 2966 ft | 214 kts | 219° |
| 2026-05-06 21:30 | 28.65302 | -81.27542 | 2980 ft | 215 kts | 219° |
| 2026-05-06 21:30 | 28.64176 | -81.28653 | 2984 ft | 214 kts | 220° |
| 2026-05-06 21:30 | 28.63051 | -81.29761 | 2995 ft | 213 kts | 220° |
| 2026-05-06 21:31 | 28.61925 | -81.30870 | 2976 ft | 215 kts | 220° |
| 2026-05-06 21:31 | 28.60847 | -81.31915 | 2958 ft | 192 kts | 216° |
| 2026-05-06 21:31 | 28.59695 | -81.32649 | 2761 ft | 187 kts | 201° |
| 2026-05-06 21:31 | 28.58456 | -81.33001 | 2362 ft | 184 kts | 187° |
| 2026-05-06 21:32 | 28.57205 | -81.33059 | 1900 ft | 173 kts | 176° |
| 2026-05-06 21:32 | 28.54973 | -81.32866 | 1252 ft | 158 kts | 175° |
| 2026-05-06 21:32 | 28.53861 | -81.32777 | 1115 ft | 163 kts | 177° |
| 2026-05-06 21:33 | 28.52715 | -81.32713 | 1022 ft | 166 kts | 177° |
| 2026-05-06 21:33 | 28.51579 | -81.32660 | 951 ft | 164 kts | 178° |
| 2026-05-06 21:33 | 28.50437 | -81.32646 | 832 ft | 166 kts | 179° |
| 2026-05-06 21:33 | 28.49262 | -81.32664 | 715 ft | 173 kts | 180° |
| 2026-05-06 21:34 | 28.48055 | -81.32676 | 598 ft | 169 kts | 179° |
| 2026-05-06 21:34 | 28.46924 | -81.32697 | 449 ft | 155 kts | 180° |
| 2026-05-06 21:34 | 28.45900 | -81.32712 | 323 ft | 138 kts | 180° |
| 2026-05-06 21:34 | 28.44991 | -81.32710 | 177 ft | 125 kts | 180° |
| 2026-05-06 21:35 | 28.44230 | -81.32693 | 107 ft | 88 kts | 179° |
| 2026-05-06 21:35 | 28.43792 | -81.32690 | 106 ft | 51 kts | 179° |
| 2026-05-06 21:35 | 28.43414 | -81.32690 | 108 ft | 57 kts | 180° |
| 2026-05-06 21:35 | 28.43091 | -81.32607 | 105 ft | 31 kts | 134° |
| 2026-05-06 21:36 | 28.43065 | -81.32542 | 106 ft | 10 kts | 98° |
| 2026-05-06 21:36 | 28.43059 | -81.32374 | 106 ft | 18 kts | 89° |
| 2026-05-06 21:36 | 28.43061 | -81.32283 | 108 ft | 9 kts | 91° |
| 2026-05-06 21:36 | 28.43062 | -81.32210 | 107 ft | 9 kts | 91° |
| 2026-05-06 21:37 | 28.43062 | -81.32140 | 107 ft | 8 kts | 90° |
| 2026-05-06 21:37 | 28.43062 | -81.32080 | 107 ft | 7 kts | 90° |
| 2026-05-06 21:37 | 28.43062 | -81.32004 | 108 ft | 13 kts | 95° |
| 2026-05-06 21:37 | 28.43033 | -81.31882 | 109 ft | 17 kts | 122° |
| 2026-05-06 21:38 | 28.42964 | -81.31777 | 106 ft | 15 kts | 128° |
| 2026-05-06 21:38 | 28.42911 | -81.31715 | 106 ft | 11 kts | 141° |
| 2026-05-06 21:38 | 28.42832 | -81.31682 | 105 ft | 15 kts | 156° |
| 2026-05-06 21:38 | 28.42783 | -81.31638 | 103 ft | 5 kts | 131° |
| 2026-05-06 21:39 | 28.42765 | -81.31620 | 102 ft | 8 kts | 143° |
| 2026-05-06 21:39 | 28.42703 | -81.31567 | 102 ft | 5 kts | 129° |
| 2026-05-06 21:39 | 28.42685 | -81.31542 | 104 ft | 3 kts | 127° |
| 2026-05-06 21:39 | 28.42681 | -81.31534 | 104 ft | 0 kts | 124° |